Time;durP1;ratioP1;P1;durP2;ratioP2;P2;SDS_P1;SDS_P2;PMS_P1;PMS_P2;Temp;Humidity;BMP_temperature;BMP_pressure;BME280_temperature;BME280_humidity;BME280_pressure;Samples;Min_cycle;Max_cycle;Signal;HPM_P1;HPM_P2
2022/06/11 00:01:45;;;;;;;11.27;4.55;;;;;;;18.16;100.00;102095.47;5063423;28;20053;-68
2022/06/11 00:04:16;;;;;;;7.22;2.95;;;;;;;18.19;100.00;102097.66;5062544;28;20024;-68
2022/06/11 00:06:46;;;;;;;13.52;3.10;;;;;;;18.02;100.00;102099.34;5047913;28;20313;-68
2022/06/11 00:09:13;;;;;;;14.55;3.63;;;;;;;18.05;100.00;102090.41;5042811;28;20029;-69
2022/06/11 00:11:40;;;;;;;10.90;3.40;;;;;;;17.93;100.00;102082.56;5045008;28;20033;-68
2022/06/11 00:14:06;;;;;;;11.93;3.50;;;;;;;17.91;100.00;102082.03;5043498;28;20383;-68
2022/06/11 00:16:32;;;;;;;11.65;3.17;;;;;;;17.78;100.00;102087.19;5044814;28;20025;-68
2022/06/11 00:18:59;;;;;;;15.70;4.50;;;;;;;17.70;100.00;102084.28;5042415;28;20152;-68
2022/06/11 00:21:30;;;;;;;13.10;3.38;;;;;;;17.68;100.00;102087.34;5045870;28;20021;-67
2022/06/11 00:23:56;;;;;;;12.43;3.58;;;;;;;17.81;100.00;102089.34;5062126;28;20512;-69
2022/06/11 00:26:22;;;;;;;13.30;3.30;;;;;;;17.69;100.00;102088.16;5066860;28;20469;-69
2022/06/11 00:28:49;;;;;;;10.82;3.13;;;;;;;17.66;100.00;102085.97;5060147;28;20048;-69
2022/06/11 00:31:15;;;;;;;15.10;4.00;;;;;;;17.48;100.00;102082.94;5048330;28;20110;-69
2022/06/11 00:33:41;;;;;;;14.98;3.75;;;;;;;17.49;100.00;102086.50;5062131;28;20040;-68
2022/06/11 00:36:09;;;;;;;12.35;3.75;;;;;;;17.46;100.00;102087.91;5064687;28;20024;-68
2022/06/11 00:38:37;;;;;;;12.52;3.47;;;;;;;17.35;100.00;102091.94;5062179;28;20067;-68
2022/06/11 00:41:03;;;;;;;9.40;3.28;;;;;;;17.58;100.00;102093.88;5063043;28;20123;-68
2022/06/11 00:43:30;;;;;;;12.35;3.45;;;;;;;17.24;100.00;102089.31;5059611;28;20055;-68
2022/06/11 00:46:27;;;;;;;14.65;3.60;;;;;;;17.03;100.00;102088.75;5064072;28;20028;-68
2022/06/11 00:48:52;;;;;;;12.43;3.58;;;;;;;17.13;100.00;102087.00;5058861;28;20107;-68
2022/06/11 00:51:22;;;;;;;14.60;3.63;;;;;;;17.07;100.00;102086.25;5064868;28;20178;-70
2022/06/11 00:53:52;;;;;;;14.95;3.58;;;;;;;17.24;100.00;102083.78;5059555;28;20093;-68
2022/06/11 00:56:40;;;;;;;14.93;3.30;;;;;;;17.12;100.00;102080.63;5063909;28;20036;-68
2022/06/11 00:59:10;;;;;;;11.25;3.22;;;;;;;17.11;100.00;102086.47;5059942;28;20024;-69
2022/06/11 01:01:36;;;;;;;11.50;3.83;;;;;;;17.18;100.00;102087.72;5063479;28;20358;-69
2022/06/11 01:04:24;;;;;;;13.65;3.38;;;;;;;16.96;100.00;102080.00;5061855;28;20028;-67
2022/06/11 01:06:53;;;;;;;14.93;3.80;;;;;;;16.93;100.00;102090.84;5063016;28;20161;-68
2022/06/11 01:09:27;;;;;;;12.07;3.30;;;;;;;17.05;100.00;102092.06;5062853;28;20028;-68
2022/06/11 01:11:59;;;;;;;15.02;3.60;;;;;;;16.95;100.00;102088.59;5060425;28;20310;-67
2022/06/11 01:14:41;;;;;;;11.90;3.38;;;;;;;17.04;100.00;102095.16;5062990;28;20113;-67
2022/06/11 01:17:37;;;;;;;16.33;3.95;;;;;;;16.93;100.00;102097.19;5063140;28;20094;-67
2022/06/11 01:20:18;;;;;;;16.17;3.53;;;;;;;17.01;100.00;102093.78;5058941;28;20494;-68
2022/06/11 01:23:28;;;;;;;16.80;4.00;;;;;;;16.87;100.00;102092.81;5059929;28;20119;-68
2022/06/11 01:26:31;;;;;;;18.40;4.22;;;;;;;17.00;100.00;102091.28;5058627;28;20151;-69
2022/06/11 01:29:18;;;;;;;21.80;4.28;;;;;;;17.01;100.00;102092.97;5055856;28;20152;-68
2022/06/11 01:31:44;;;;;;;15.23;3.95;;;;;;;17.02;100.00;102086.28;5061773;28;20055;-67
2022/06/11 01:34:21;;;;;;;18.00;4.28;;;;;;;16.97;100.00;102091.88;5061607;28;20147;-68
2022/06/11 01:36:52;;;;;;;18.48;4.00;;;;;;;16.88;100.00;102092.53;5059382;28;20028;-68
2022/06/11 01:39:24;;;;;;;18.33;4.25;;;;;;;16.82;100.00;102092.84;5060561;28;20544;-69
2022/06/11 01:41:59;;;;;;;19.27;4.07;;;;;;;16.80;100.00;102086.78;5060624;28;20024;-68
2022/06/11 01:44:31;;;;;;;16.00;3.78;;;;;;;17.00;100.00;102088.53;5062460;28;20028;-67
2022/06/11 01:46:58;;;;;;;18.85;4.40;;;;;;;16.82;100.00;102090.09;5059796;28;20051;-69
2022/06/11 01:49:23;;;;;;;18.92;3.63;;;;;;;16.87;100.00;102090.06;5058117;28;20041;-69
2022/06/11 01:52:14;;;;;;;17.67;4.10;;;;;;;16.84;100.00;102083.16;5061794;28;20032;-68
2022/06/11 01:55:03;;;;;;;15.25;4.25;;;;;;;16.84;100.00;102085.91;5057023;28;20031;-68
2022/06/11 01:57:28;;;;;;;13.80;3.58;;;;;;;16.82;100.00;102099.25;5057997;28;20158;-68
2022/06/11 02:00:25;;;;;;;22.80;4.70;;;;;;;16.68;100.00;102098.28;5060277;28;20052;-68
2022/06/11 02:03:23;;;;;;;17.95;3.92;;;;;;;16.56;100.00;102103.38;5060475;28;20020;-68
2022/06/11 02:06:36;;;;;;;16.35;3.97;;;;;;;16.73;100.00;102101.00;5063698;28;20077;-67
2022/06/11 02:09:20;;;;;;;16.95;3.88;;;;;;;16.56;100.00;102101.47;5046618;28;20085;-69
2022/06/11 02:12:06;;;;;;;17.88;4.95;;;;;;;16.73;100.00;102101.00;5046052;28;20122;-68
2022/06/11 02:14:52;;;;;;;21.00;4.88;;;;;;;16.78;100.00;102103.69;5069322;28;20025;-68
2022/06/11 02:17:25;;;;;;;18.23;4.22;;;;;;;16.52;100.00;102103.97;5070443;28;20040;-68
2022/06/11 02:19:57;;;;;;;21.10;4.57;;;;;;;16.58;100.00;102107.50;5064805;28;20120;-68
2022/06/11 02:22:39;;;;;;;17.03;4.37;;;;;;;16.50;100.00;102108.16;5069310;28;20091;-68
2022/06/11 02:25:12;;;;;;;17.73;4.03;;;;;;;16.59;100.00;102102.78;5064510;28;20485;-67
2022/06/11 02:27:40;;;;;;;21.15;5.05;;;;;;;16.58;100.00;102101.13;5066820;28;20510;-68
2022/06/11 02:30:10;;;;;;;19.67;4.15;;;;;;;16.66;100.00;102097.72;5066675;28;20036;-69
2022/06/11 02:32:35;;;;;;;16.83;3.92;;;;;;;16.66;100.00;102100.50;5068887;28;20470;-68
2022/06/11 02:35:08;;;;;;;22.45;4.88;;;;;;;16.61;100.00;102108.84;5049025;28;20100;-67
2022/06/11 02:37:38;;;;;;;20.80;5.15;;;;;;;16.64;100.00;102105.50;5070795;28;20020;-67
2022/06/11 02:40:15;;;;;;;20.35;5.03;;;;;;;16.54;100.00;102112.81;5064410;28;20032;-67
2022/06/11 02:42:42;;;;;;;24.65;6.18;;;;;;;16.56;100.00;102109.75;5065170;28;20074;-68
2022/06/11 02:45:10;;;;;;;19.80;4.93;;;;;;;16.60;100.00;102118.31;5067635;28;20112;-69
2022/06/11 02:47:36;;;;;;;20.05;5.18;;;;;;;16.67;100.00;102127.91;5070522;28;20830;-69
2022/06/11 02:50:03;;;;;;;23.40;5.47;;;;;;;16.46;100.00;102124.53;5056894;28;20543;-68
2022/06/11 02:52:29;;;;;;;17.48;5.07;;;;;;;16.27;100.00;102123.59;5045630;28;20074;-68
2022/06/11 02:54:54;;;;;;;19.20;4.75;;;;;;;16.28;100.00;102130.75;5044612;28;20059;-67
2022/06/11 02:57:27;;;;;;;20.70;4.50;;;;;;;16.23;100.00;102128.03;5046465;28;20052;-68
2022/06/11 02:59:53;;;;;;;22.27;5.10;;;;;;;16.20;100.00;102123.91;5046418;28;20048;-68
2022/06/11 03:02:20;;;;;;;22.90;4.95;;;;;;;16.26;100.00;102133.00;5047714;28;20059;-67
2022/06/11 03:04:46;;;;;;;19.60;5.55;;;;;;;16.14;100.00;102133.38;5059929;28;20119;-68
2022/06/11 03:07:12;;;;;;;19.05;5.07;;;;;;;16.21;100.00;102139.38;5050288;28;20119;-69
2022/06/11 03:09:39;;;;;;;22.30;5.05;;;;;;;16.27;100.00;102137.41;5065994;28;20032;-68
2022/06/11 03:12:06;;;;;;;25.88;5.90;;;;;;;16.14;100.00;102141.66;5046494;28;20362;-67
2022/06/11 03:14:31;;;;;;;25.55;5.10;;;;;;;15.98;100.00;102133.47;5068471;28;20335;-67
2022/06/11 03:16:57;;;;;;;21.08;4.75;;;;;;;16.19;100.00;102141.63;5063092;28;20056;-69
2022/06/11 03:19:22;;;;;;;23.80;5.30;;;;;;;16.20;100.00;102146.06;5063181;28;20386;-68
2022/06/11 03:21:51;;;;;;;25.45;6.57;;;;;;;16.35;100.00;102145.09;5047893;28;20106;-68
2022/06/11 03:24:17;;;;;;;25.20;5.45;;;;;;;16.32;100.00;102149.25;5061011;28;20032;-68
2022/06/11 03:26:44;;;;;;;20.10;4.53;;;;;;;16.25;100.00;102147.94;5065390;28;20031;-69
2022/06/11 03:29:10;;;;;;;26.23;5.20;;;;;;;16.20;100.00;102150.75;5059781;28;20475;-68
2022/06/11 03:31:37;;;;;;;21.92;5.22;;;;;;;16.32;100.00;102162.28;5048155;28;20028;-68
2022/06/11 03:34:05;;;;;;;23.42;5.78;;;;;;;16.34;100.00;102158.09;5061457;28;20028;-67
2022/06/11 03:36:31;;;;;;;23.80;5.40;;;;;;;16.21;100.00;102163.47;5010764;28;20051;-69
2022/06/11 03:38:57;;;;;;;23.63;5.43;;;;;;;16.22;100.00;102160.41;5041167;28;20061;-68
2022/06/11 03:41:22;;;;;;;25.70;5.32;;;;;;;16.27;100.00;102165.91;5046009;28;20463;-69
2022/06/11 03:43:50;;;;;;;18.73;5.38;;;;;;;16.23;100.00;102170.34;5059224;28;20114;-68
2022/06/11 03:46:16;;;;;;;24.77;5.97;;;;;;;16.25;100.00;102170.06;5030123;28;20036;-70
2022/06/11 03:48:42;;;;;;;25.08;5.22;;;;;;;16.09;100.00;102169.38;5061281;28;20406;-69
2022/06/11 03:51:09;;;;;;;23.63;5.93;;;;;;;16.23;100.00;102177.84;5060947;28;20211;-69
2022/06/11 03:53:38;;;;;;;25.17;5.45;;;;;;;16.17;100.00;102177.88;5062400;28;20471;-68
2022/06/11 03:56:05;;;;;;;26.40;5.82;;;;;;;16.20;100.00;102178.41;5062450;28;20043;-67
2022/06/11 03:58:31;;;;;;;26.98;5.88;;;;;;;16.28;100.00;102175.03;5063420;28;20024;-67
2022/06/11 04:01:15;;;;;;;26.38;6.07;;;;;;;16.13;100.00;102178.72;5063257;28;20071;-68
2022/06/11 04:03:50;;;;;;;22.90;5.43;;;;;;;16.29;100.00;102187.75;5064723;28;20027;-68
2022/06/11 04:06:19;;;;;;;25.60;5.68;;;;;;;16.15;100.00;102180.13;5060421;28;20032;-69
2022/06/11 04:08:45;;;;;;;27.17;6.30;;;;;;;16.41;100.00;102177.13;5063046;28;20143;-68
2022/06/11 04:11:11;;;;;;;24.55;6.07;;;;;;;16.48;100.00;102190.66;5043427;28;20671;-69
2022/06/11 04:13:40;;;;;;;27.85;6.10;;;;;;;16.39;100.00;102187.66;5062198;28;20491;-69
2022/06/11 04:16:08;;;;;;;26.13;6.72;;;;;;;16.45;100.00;102192.06;5061978;28;20025;-69
2022/06/11 04:18:43;;;;;;;27.33;6.57;;;;;;;16.43;100.00;102196.22;5064332;28;20028;-69
2022/06/11 04:21:12;;;;;;;23.15;5.60;;;;;;;16.42;100.00;102203.69;5050659;28;20025;-69
2022/06/11 04:23:41;;;;;;;32.88;6.78;;;;;;;16.26;100.00;102205.75;5041137;28;20021;-67
2022/06/11 04:26:10;;;;;;;32.90;7.35;;;;;;;16.30;100.00;102200.50;5043681;28;20096;-68
2022/06/11 04:28:36;;;;;;;26.27;6.18;;;;;;;16.47;100.00;102206.44;5043476;28;20024;-68
2022/06/11 04:31:06;;;;;;;29.17;6.68;;;;;;;16.49;100.00;102206.97;5042040;28;20032;-67
2022/06/11 04:33:32;;;;;;;26.75;7.07;;;;;;;16.55;100.00;102213.28;5044423;28;20041;-68
2022/06/11 04:35:58;;;;;;;23.45;5.95;;;;;;;16.45;100.00;102216.16;5040194;28;20052;-67
2022/06/11 04:38:24;;;;;;;28.13;6.93;;;;;;;16.62;100.00;102207.44;5042560;28;20120;-68
2022/06/11 04:40:50;;;;;;;28.35;6.65;;;;;;;16.62;100.00;102221.28;5039660;28;20399;-68
2022/06/11 04:43:17;;;;;;;26.63;6.53;;;;;;;16.83;100.00;102227.47;5025152;28;20048;-67
2022/06/11 04:45:42;;;;;;;34.78;7.15;;;;;;;16.83;100.00;102219.97;5041287;28;20439;-68
2022/06/11 04:48:08;;;;;;;27.00;6.28;;;;;;;16.87;100.00;102223.84;5026160;28;20041;-69
2022/06/11 04:50:35;;;;;;;28.08;6.45;;;;;;;16.86;100.00;102221.38;5042334;28;20107;-67
2022/06/11 04:53:01;;;;;;;27.70;6.97;;;;;;;16.86;100.00;102227.72;5042014;28;20020;-69
2022/06/11 04:55:27;;;;;;;33.05;6.90;;;;;;;16.81;100.00;102221.41;5041695;28;20507;-69
2022/06/11 04:57:54;;;;;;;31.92;7.40;;;;;;;16.63;100.00;102223.75;5025566;28;20041;-67
2022/06/11 05:00:24;;;;;;;31.42;7.15;;;;;;;16.84;100.00;102229.94;5039747;28;20479;-68
2022/06/11 05:02:50;;;;;;;27.40;6.88;;;;;;;16.86;100.00;102230.50;5043283;28;20471;-69
2022/06/11 05:05:16;;;;;;;31.85;6.80;;;;;;;16.87;100.00;102231.31;5020620;28;20029;-67
2022/06/11 05:07:43;;;;;;;27.52;6.20;;;;;;;16.80;100.00;102230.81;5049459;28;20225;-68
2022/06/11 05:10:10;;;;;;;28.15;6.45;;;;;;;16.94;100.00;102242.91;5059913;28;20029;-67
2022/06/11 05:12:36;;;;;;;27.55;6.88;;;;;;;17.05;100.00;102232.53;5063304;28;20016;-68
2022/06/11 05:15:02;;;;;;;30.60;6.47;;;;;;;17.18;100.00;102242.91;5059426;28;20036;-69
2022/06/11 05:17:27;;;;;;;30.70;6.88;;;;;;;16.76;100.00;102244.41;5061717;28;20035;-67
2022/06/11 05:19:53;;;;;;;27.27;6.00;;;;;;;16.89;100.00;102234.66;5057045;28;20483;-68
2022/06/11 05:22:19;;;;;;;24.25;6.07;;;;;;;16.93;100.00;102238.47;5060466;28;20032;-68
2022/06/11 05:24:46;;;;;;;29.88;6.32;;;;;;;16.89;100.00;102243.78;5058493;28;20029;-68
2022/06/11 05:27:19;;;;;;;24.10;6.20;;;;;;;17.28;100.00;102244.75;5024655;28;20060;-68
2022/06/11 05:29:48;;;;;;;30.25;6.15;;;;;;;17.12;100.00;102238.56;5060773;28;20446;-68
2022/06/11 05:32:16;;;;;;;24.50;6.25;;;;;;;17.34;100.00;102242.78;5042278;28;20032;-68
2022/06/11 05:34:43;;;;;;;28.02;6.45;;;;;;;17.16;100.00;102247.13;5041558;28;20025;-68
2022/06/11 05:37:09;;;;;;;26.27;6.25;;;;;;;17.33;100.00;102250.28;5040065;28;20033;-68
2022/06/11 05:39:35;;;;;;;33.65;6.68;;;;;;;17.10;100.00;102251.88;5022404;28;20116;-69
2022/06/11 05:42:01;;;;;;;27.50;6.35;;;;;;;17.32;100.00;102248.63;5038839;28;20115;-68
2022/06/11 05:44:27;;;;;;;28.00;6.00;;;;;;;17.17;100.00;102257.91;5041300;28;20032;-67
2022/06/11 05:46:53;;;;;;;25.08;6.25;;;;;;;17.25;100.00;102257.28;5024138;28;20794;-69
2022/06/11 05:49:24;;;;;;;27.85;6.43;;;;;;;17.44;100.00;102262.88;5039658;28;20041;-69
2022/06/11 05:51:54;;;;;;;26.35;6.07;;;;;;;17.51;100.00;102262.56;5042475;28;20399;-67
2022/06/11 05:54:23;;;;;;;29.20;6.40;;;;;;;17.68;100.00;102264.84;5039072;28;20025;-69
2022/06/11 05:56:51;;;;;;;24.65;6.82;;;;;;;17.67;100.00;102262.38;5041686;28;20091;-67
2022/06/11 05:59:20;;;;;;;25.52;5.93;;;;;;;17.99;100.00;102256.16;5023364;28;20118;-69
2022/06/11 06:01:47;;;;;;;28.02;6.70;;;;;;;17.94;100.00;102259.81;5041881;28;20041;-67
2022/06/11 06:04:13;;;;;;;27.20;6.18;;;;;;;17.54;100.00;102261.94;5040737;28;20064;-68
2022/06/11 06:06:38;;;;;;;28.73;7.13;;;;;;;17.57;100.00;102255.81;5041541;28;20060;-68
2022/06/11 06:09:03;;;;;;;28.55;6.40;;;;;;;17.94;100.00;102256.22;5037470;28;20436;-68
2022/06/11 06:11:29;;;;;;;29.00;7.00;;;;;;;17.94;100.00;102256.22;5043866;28;20025;-68
2022/06/11 06:13:56;;;;;;;24.25;5.22;;;;;;;17.96;100.00;102262.31;5023437;28;20124;-68
2022/06/11 06:16:31;;;;;;;25.65;6.03;;;;;;;18.14;100.00;102261.50;5059168;28;20143;-68
2022/06/11 06:18:59;;;;;;;25.70;6.00;;;;;;;18.16;100.00;102262.00;5059781;28;20446;-68
2022/06/11 06:21:28;;;;;;;26.17;5.47;;;;;;;17.87;100.00;102267.66;5058364;28;20040;-69
2022/06/11 06:23:53;;;;;;;23.63;6.15;;;;;;;17.79;100.00;102269.16;5036984;28;20553;-69
2022/06/11 06:26:19;;;;;;;25.10;6.60;;;;;;;18.04;100.00;102261.63;5039522;28;20330;-68
2022/06/11 06:28:45;;;;;;;25.42;5.85;;;;;;;18.02;100.00;102265.81;5041991;28;20477;-67
2022/06/11 06:31:13;;;;;;;23.65;5.20;;;;;;;18.11;100.00;102264.03;5059315;28;20349;-68
2022/06/11 06:33:39;;;;;;;27.83;6.18;;;;;;;17.87;100.00;102276.00;5060494;28;20021;-69
2022/06/11 06:36:07;;;;;;;26.08;5.60;;;;;;;18.08;100.00;102267.41;5057639;28;20048;-66
2022/06/11 06:38:34;;;;;;;23.77;6.40;;;;;;;17.98;100.00;102263.63;5042601;28;20040;-67
2022/06/11 06:41:01;;;;;;;26.92;5.50;;;;;;;18.01;100.00;102270.56;5044226;28;20454;-68
2022/06/11 06:43:27;;;;;;;24.98;6.25;;;;;;;18.38;100.00;102268.91;5046677;28;20029;-69
2022/06/11 06:45:53;;;;;;;23.52;6.07;;;;;;;18.36;100.00;102282.28;5040631;28;20044;-68
2022/06/11 06:48:19;;;;;;;30.48;6.25;;;;;;;18.33;100.00;102285.66;5039106;28;20040;-68
2022/06/11 06:50:44;;;;;;;27.55;5.60;;;;;;;18.22;100.00;102281.34;5021769;28;20076;-68
2022/06/11 06:53:10;;;;;;;24.80;5.53;;;;;;;18.12;100.00;102285.94;5045227;28;20108;-67
2022/06/11 06:55:36;;;;;;;26.90;6.13;;;;;;;18.32;100.00;102284.00;5043450;28;20033;-68
2022/06/11 06:58:01;;;;;;;21.10;4.53;;;;;;;18.20;100.00;102284.47;5043637;28;20134;-68
2022/06/11 07:00:27;;;;;;;23.42;5.22;;;;;;;18.40;100.00;102288.88;5044378;28;20096;-69
2022/06/11 07:02:55;;;;;;;20.55;4.75;;;;;;;17.98;100.00;102290.56;5041276;28;20029;-68
2022/06/11 07:05:22;;;;;;;19.17;4.97;;;;;;;18.19;100.00;102286.41;5040691;28;20128;-68
2022/06/11 07:07:49;;;;;;;22.92;4.10;;;;;;;18.24;100.00;102290.22;5024877;28;20036;-68
2022/06/11 07:10:17;;;;;;;22.42;4.82;;;;;;;18.06;100.00;102297.41;5023956;28;20032;-68
2022/06/11 07:12:42;;;;;;;17.17;4.43;;;;;;;18.37;100.00;102287.53;5042821;28;20017;-68
2022/06/11 07:15:09;;;;;;;14.73;4.15;;;;;;;18.31;100.00;102297.03;5025863;28;20048;-68
2022/06/11 07:17:44;;;;;;;17.45;4.18;;;;;;;18.43;100.00;102281.88;5026992;28;20041;-67
2022/06/11 07:20:17;;;;;;;20.13;4.72;;;;;;;18.12;100.00;102287.91;5043840;28;20025;-68
2022/06/11 07:23:06;;;;;;;16.13;4.15;;;;;;;18.68;100.00;102294.56;5041380;28;20028;-67
2022/06/11 07:25:34;;;;;;;20.02;4.82;;;;;;;18.92;100.00;102289.75;5040422;28;20029;-67
2022/06/11 07:28:04;;;;;;;17.52;4.60;;;;;;;19.15;100.00;102297.41;5026424;28;20136;-67
2022/06/11 07:30:35;;;;;;;20.60;5.72;;;;;;;19.29;100.00;102293.53;5042562;28;20041;-68
2022/06/11 07:33:10;;;;;;;16.23;3.85;;;;;;;19.11;100.00;102291.66;5048984;28;20024;-70
2022/06/11 07:35:38;;;;;;;16.70;4.85;;;;;;;19.16;100.00;102294.34;5063148;28;20025;-67
2022/06/11 07:38:08;;;;;;;18.70;5.00;;;;;;;19.14;100.00;102295.78;5062867;28;20039;-67
2022/06/11 07:40:34;;;;;;;18.10;4.22;;;;;;;19.15;100.00;102287.16;5059292;28;20028;-68
2022/06/11 07:43:00;;;;;;;19.60;5.55;;;;;;;19.28;100.00;102302.19;5062906;28;20386;-67
2022/06/11 07:45:25;;;;;;;23.30;4.80;;;;;;;19.77;100.00;102306.28;5061742;28;20028;-67
2022/06/11 07:47:54;;;;;;;15.40;4.55;;;;;;;19.15;100.00;102308.53;5062977;28;20430;-68
2022/06/11 07:50:23;;;;;;;19.48;4.15;;;;;;;19.43;100.00;102307.47;5061209;28;20455;-68
2022/06/11 07:52:49;;;;;;;23.50;4.50;;;;;;;19.47;100.00;102304.91;5061747;28;20028;-68
2022/06/11 07:55:16;;;;;;;19.05;4.38;;;;;;;19.47;100.00;102302.94;5061610;28;20103;-68
2022/06/11 07:57:42;;;;;;;14.45;4.15;;;;;;;19.86;100.00;102314.75;5059714;28;20035;-68
2022/06/11 08:00:12;;;;;;;15.80;3.45;;;;;;;19.41;100.00;102315.31;5065007;28;20040;-68
2022/06/11 08:02:38;;;;;;;21.23;4.18;;;;;;;19.58;100.00;102317.47;5061437;28;20031;-67
2022/06/11 08:05:04;;;;;;;21.08;4.25;;;;;;;19.85;100.00;102313.09;5062774;28;20527;-69
2022/06/11 08:07:30;;;;;;;17.50;4.03;;;;;;;19.26;100.00;102312.78;5035077;28;20565;-68
2022/06/11 08:09:57;;;;;;;15.10;3.95;;;;;;;19.72;100.00;102317.47;5041517;28;20116;-68
2022/06/11 08:12:26;;;;;;;16.77;3.90;;;;;;;19.49;100.00;102319.31;5057672;28;20028;-68
2022/06/11 08:14:56;;;;;;;15.38;4.32;;;;;;;19.81;100.00;102321.22;5064817;28;20044;-69
2022/06/11 08:17:23;;;;;;;18.25;3.90;;;;;;;20.06;100.00;102326.59;5059602;28;20155;-71
2022/06/11 08:19:49;;;;;;;17.52;4.13;;;;;;;19.58;100.00;102323.06;5061343;28;20473;-70
2022/06/11 08:22:16;;;;;;;17.67;4.03;;;;;;;19.59;100.00;102316.34;5060709;28;20499;-71
2022/06/11 08:24:42;;;;;;;17.90;3.85;;;;;;;19.56;100.00;102335.59;5048330;28;20044;-70
2022/06/11 08:27:07;;;;;;;19.23;3.88;;;;;;;20.03;100.00;102328.03;5039451;28;20029;-72
2022/06/11 08:29:33;;;;;;;13.90;3.50;;;;;;;20.81;100.00;102325.19;5024275;28;20392;-71
2022/06/11 08:31:58;;;;;;;18.80;4.30;;;;;;;21.21;100.00;102327.25;5041680;28;20037;-71
2022/06/11 08:34:24;;;;;;;18.08;3.47;;;;;;;21.23;100.00;102325.78;5040348;28;20020;-71
2022/06/11 08:36:49;;;;;;;18.95;4.07;;;;;;;21.21;100.00;102322.50;5040053;28;20090;-70
2022/06/11 08:39:16;;;;;;;16.67;3.97;;;;;;;21.27;100.00;102321.22;5052089;28;20398;-70
2022/06/11 08:41:42;;;;;;;14.88;4.13;;;;;;;21.57;100.00;102318.75;5044088;28;20166;-71
2022/06/11 08:44:13;;;;;;;14.15;4.05;;;;;;;20.88;100.00;102314.41;5060774;28;20438;-71
2022/06/11 08:46:41;;;;;;;16.63;4.00;;;;;;;20.96;100.00;102315.63;5062846;28;20025;-70
2022/06/11 08:49:18;;;;;;;15.80;3.83;;;;;;;21.00;100.00;102316.59;5063610;28;20036;-70
2022/06/11 08:52:09;;;;;;;12.57;3.72;;;;;;;20.34;100.00;102319.81;5060602;28;20024;-68
2022/06/11 08:54:39;;;;;;;15.90;4.10;;;;;;;20.47;100.00;102320.94;5061028;28;20107;-71
2022/06/11 08:57:13;;;;;;;17.42;4.03;;;;;;;20.76;100.00;102328.09;5062043;28;20160;-72
2022/06/11 09:00:09;;;;;;;20.05;4.35;;;;;;;20.85;100.00;102314.22;5060632;28;20511;-70
2022/06/11 09:03:12;;;;;;;16.13;4.45;;;;;;;21.79;100.00;102311.44;5063291;28;20067;-70
2022/06/11 09:06:12;;;;;;;15.75;4.55;;;;;;;22.09;100.00;102309.75;5060348;28;20456;-70
2022/06/11 09:09:03;;;;;;;19.55;4.07;;;;;;;22.63;100.00;102303.06;5058438;28;20129;-71
2022/06/11 09:12:01;;;;;;;19.50;4.38;;;;;;;21.87;100.00;102305.06;5060068;28;20028;-71
2022/06/11 09:15:08;;;;;;;15.65;3.95;;;;;;;21.25;100.00;102309.56;5059845;28;20016;-71
2022/06/11 09:17:45;;;;;;;15.43;4.00;;;;;;;21.00;100.00;102313.81;5061542;28;20505;-71
2022/06/11 09:20:25;;;;;;;16.13;3.97;;;;;;;21.46;100.00;102307.06;5061442;28;20100;-69
2022/06/11 09:23:13;;;;;;;19.58;4.47;;;;;;;22.23;100.00;102300.41;5040403;28;20440;-71
2022/06/11 09:25:54;;;;;;;16.30;4.07;;;;;;;21.99;100.00;102307.25;5039005;28;20359;-70
2022/06/11 09:28:40;;;;;;;18.17;4.18;;;;;;;21.11;100.00;102306.03;5039758;28;20036;-72
2022/06/11 09:31:27;;;;;;;15.27;3.97;;;;;;;21.30;100.00;102303.03;5039570;28;20162;-70
2022/06/11 09:34:11;;;;;;;18.90;4.57;;;;;;;22.47;100.00;102299.97;5040987;28;20372;-70
2022/06/11 09:36:46;;;;;;;16.88;3.97;;;;;;;22.41;100.00;102304.06;5039347;28;20028;-70
2022/06/11 09:39:23;;;;;;;19.20;4.32;;;;;;;22.87;100.00;102308.97;5040140;28;20040;-70
2022/06/11 09:42:11;;;;;;;14.80;4.28;;;;;;;23.66;100.00;102308.75;5039535;28;20044;-70
2022/06/11 09:44:49;;;;;;;18.05;4.47;;;;;;;23.28;100.00;102315.16;5041996;28;20017;-71
2022/06/11 09:47:33;;;;;;;22.95;5.57;;;;;;;22.66;100.00;102322.81;5041177;28;20047;-71
2022/06/11 09:50:29;;;;;;;19.63;4.75;;;;;;;22.35;100.00;102321.00;5043685;28;20056;-71
2022/06/11 09:53:14;;;;;;;15.35;4.53;;;;;;;23.70;100.00;102320.94;5030406;28;20035;-70
2022/06/11 09:56:01;;;;;;;18.60;4.50;;;;;;;22.85;100.00;102316.06;5039341;28;20032;-70
2022/06/11 09:59:00;;;;;;;21.88;5.30;;;;;;;23.11;100.00;102319.66;5039653;28;20044;-70
2022/06/11 10:01:35;;;;;;;25.88;5.53;;;;;;;23.30;100.00;102316.47;5044084;28;20048;-70
2022/06/11 10:04:06;;;;;;;20.48;5.30;;;;;;;23.38;100.00;102326.00;5042455;28;20453;-70
2022/06/11 10:06:42;;;;;;;20.50;4.95;;;;;;;22.21;100.00;102337.84;5041531;28;20027;-70
2022/06/11 10:09:18;;;;;;;26.60;5.20;;;;;;;23.13;100.00;102334.13;5039950;28;20487;-70
2022/06/11 10:12:12;;;;;;;25.65;5.38;;;;;;;23.15;100.00;102335.78;5037511;28;20436;-71
2022/06/11 10:14:44;;;;;;;19.40;4.90;;;;;;;23.47;100.00;102337.97;5039334;28;20079;-70
2022/06/11 10:17:54;;;;;;;19.40;4.93;;;;;;;21.26;100.00;102347.44;5041778;28;20047;-72
2022/06/11 10:20:31;;;;;;;19.77;4.82;;;;;;;22.37;100.00;102340.22;5029748;28;20041;-71
2022/06/11 10:23:11;;;;;;;19.35;5.10;;;;;;;22.92;100.00;102345.16;5038376;28;20349;-70
2022/06/11 10:26:00;;;;;;;19.58;4.80;;;;;;;23.47;100.00;102340.78;5041114;28;20033;-71
2022/06/11 10:28:31;;;;;;;19.88;5.35;;;;;;;23.46;100.00;102349.50;5044374;28;20146;-71
2022/06/11 10:30:56;;;;;;;22.60;5.50;;;;;;;23.11;100.00;102353.22;5047272;28;20024;-73
2022/06/11 10:33:33;;;;;;;22.48;5.65;;;;;;;22.52;100.00;102348.13;5046131;28;20031;-71
2022/06/11 10:36:08;;;;;;;29.75;5.88;;;;;;;22.89;100.00;102353.38;5045544;28;20029;-70
2022/06/11 10:38:40;;;;;;;22.10;5.05;;;;;;;21.69;100.00;102354.44;5042356;28;20020;-70
2022/06/11 10:41:09;;;;;;;25.17;5.35;;;;;;;21.96;100.00;102349.78;5045944;28;20387;-71
2022/06/11 10:44:19;;;;;;;24.15;5.07;;;;;;;22.34;100.00;102352.84;5044470;28;20025;-70
2022/06/11 10:46:45;;;;;;;23.63;5.53;;;;;;;22.38;100.00;102336.25;5032014;28;20123;-71
2022/06/11 10:49:15;;;;;;;21.95;5.47;;;;;;;21.96;100.00;102345.03;5044100;28;20108;-69
2022/06/11 10:51:47;;;;;;;25.92;5.82;;;;;;;22.53;100.00;102344.19;5044874;28;20479;-70
2022/06/11 10:54:20;;;;;;;22.95;5.90;;;;;;;22.10;100.00;102344.88;5047022;28;20366;-70
2022/06/11 10:57:00;;;;;;;23.55;5.40;;;;;;;22.92;100.00;102338.72;5063235;28;20066;-70
2022/06/11 10:59:44;;;;;;;21.73;5.63;;;;;;;23.16;100.00;102335.44;5064436;28;20437;-71
2022/06/11 11:02:26;;;;;;;20.85;5.47;;;;;;;23.08;100.00;102339.06;5042622;28;20550;-71
2022/06/11 11:05:08;;;;;;;20.60;5.25;;;;;;;22.94;100.00;102336.44;5045173;28;20099;-72
2022/06/11 11:07:51;;;;;;;22.98;5.55;;;;;;;23.30;100.00;102343.63;5040421;28;20328;-70
2022/06/11 11:10:39;;;;;;;;;;;;;;;23.04;100.00;102347.28;5050332;28;20048;-70
2022/06/11 11:13:24;;;;;;;18.23;4.43;;;;;;;22.83;100.00;102349.94;5045591;28;19912;-69
2022/06/11 11:16:19;;;;;;;21.63;5.00;;;;;;;22.22;100.00;102349.84;5042680;28;20549;-71
2022/06/11 11:19:02;;;;;;;19.50;5.30;;;;;;;22.05;100.00;102355.38;5042729;28;20105;-70
2022/06/11 11:21:34;;;;;;;16.40;5.00;;;;;;;21.23;100.00;102355.63;5046093;28;20047;-69
2022/06/11 11:24:15;;;;;;;19.27;4.95;;;;;;;22.98;100.00;102340.22;5039683;28;20039;-67
2022/06/11 11:26:46;;;;;;;19.92;5.15;;;;;;;23.41;100.00;102339.31;5045042;28;20025;-70
2022/06/11 11:29:54;;;;;;;23.38;4.47;;;;;;;21.73;100.00;102349.06;5043712;28;20027;-70
2022/06/11 11:32:34;;;;;;;19.75;4.88;;;;;;;22.42;100.00;102342.03;5005708;28;20021;-69
2022/06/11 11:35:18;;;;;;;18.50;4.63;;;;;;;22.09;100.00;102357.22;5042165;28;20207;-70